Time;durP1;ratioP1;P1;durP2;ratioP2;P2;SDS_P1;SDS_P2;PMS_P1;PMS_P2;Temp;Humidity;BMP_temperature;BMP_pressure;BME280_temperature;BME280_humidity;BME280_pressure;Samples;Min_cycle;Max_cycle;Signal;HPM_P1;HPM_P2
2024/02/08 00:01:17;;;;;;;2.60;2.40;;;;;;;;;;6389385;27;20315;-59
2024/02/08 00:04:20;;;;;;;5.47;2.50;;;;;;;;;;6389059;27;20304;-57
2024/02/08 00:07:24;;;;;;;2.70;2.50;;;;;;;;;;6389044;27;20294;-55
2024/02/08 00:10:30;;;;;;;4.63;2.43;;;;;;;;;;6379154;27;20303;-57
2024/02/08 00:13:35;;;;;;;2.70;2.50;;;;;;;;;;6362994;28;20300;-57
2024/02/08 00:16:39;;;;;;;4.43;3.60;;;;;;;;;;6363478;28;20317;-57
2024/02/08 00:19:42;;;;;;;2.70;2.60;;;;;;;;;;6362760;28;20381;-56
2024/02/08 00:22:49;;;;;;;3.80;2.53;;;;;;;;;;6387245;27;20550;-57
2024/02/08 00:25:55;;;;;;;3.50;2.50;;;;;;;;;;6370642;27;20287;-56
2024/02/08 00:29:00;;;;;;;2.27;2.20;;;;;;;;;;6387999;27;20296;-56
2024/02/08 00:32:04;;;;;;;2.47;2.00;;;;;;;;;;6388599;27;20293;-56
2024/02/08 00:35:09;;;;;;;2.63;2.40;;;;;;;;;;6388168;27;20293;-55
2024/02/08 00:38:14;;;;;;;2.63;2.30;;;;;;;;;;6387861;27;20562;-54
2024/02/08 00:41:23;;;;;;;2.80;2.70;;;;;;;;;;6388603;27;20289;-57
2024/02/08 00:44:28;;;;;;;2.30;2.30;;;;;;;;;;6387819;27;20297;-57
2024/02/08 00:47:32;;;;;;;2.63;2.50;;;;;;;;;;6388095;27;20285;-57
2024/02/08 00:50:36;;;;;;;3.30;2.57;;;;;;;;;;6387708;27;20338;-57
2024/02/08 00:53:42;;;;;;;2.77;2.67;;;;;;;;;;6387780;27;20299;-58
2024/02/08 00:56:47;;;;;;;4.60;2.50;;;;;;;;;;6387343;27;20574;-58
2024/02/08 00:59:51;;;;;;;2.83;2.53;;;;;;;;;;6387743;27;20584;-58
2024/02/08 01:02:57;;;;;;;4.60;2.50;;;;;;;;;;6387655;27;20313;-58
2024/02/08 01:06:02;;;;;;;4.00;2.53;;;;;;;;;;6387575;27;20289;-58
2024/02/08 01:09:06;;;;;;;2.60;2.50;;;;;;;;;;6386919;27;20581;-58
2024/02/08 01:12:12;;;;;;;3.67;2.50;;;;;;;;;;6361991;27;20309;-58
2024/02/08 01:15:16;;;;;;;2.80;2.50;;;;;;;;;;6361570;28;20298;-58
2024/02/08 01:18:20;;;;;;;2.80;2.70;;;;;;;;;;6361549;28;20332;-56
2024/02/08 01:21:26;;;;;;;3.37;2.70;;;;;;;;;;6386748;27;20561;-58
2024/02/08 01:24:30;;;;;;;5.73;2.60;;;;;;;;;;6387318;27;20298;-58
2024/02/08 01:27:35;;;;;;;2.43;2.33;;;;;;;;;;6387344;27;20249;-57
2024/02/08 01:30:39;;;;;;;2.80;2.60;;;;;;;;;;6386259;27;20292;-57
2024/02/08 01:33:44;;;;;;;7.00;2.30;;;;;;;;;;6386348;27;20285;-57
2024/02/08 01:36:52;;;;;;;2.67;2.60;;;;;;;;;;6386577;27;20291;-58
2024/02/08 01:39:57;;;;;;;2.73;2.53;;;;;;;;;;6386496;27;20293;-58
2024/02/08 01:43:04;;;;;;;2.40;2.40;;;;;;;;;;6386796;27;20582;-57
2024/02/08 01:46:09;;;;;;;2.93;2.60;;;;;;;;;;6387200;27;20306;-58
2024/02/08 01:49:15;;;;;;;2.30;2.20;;;;;;;;;;6386646;27;20317;-57
2024/02/08 01:52:21;;;;;;;3.63;3.20;;;;;;;;;;6385179;27;20482;-57
2024/02/08 01:55:25;;;;;;;5.00;2.90;;;;;;;;;;6386019;27;20450;-57
2024/02/08 01:58:31;;;;;;;6.97;2.70;;;;;;;;;;6367020;27;20578;-56
2024/02/08 02:01:51;;;;;;;5.70;2.70;;;;;;;;;;6367566;27;20423;-57
2024/02/08 02:04:55;;;;;;;3.07;2.63;;;;;;;;;;6386229;27;20386;-58
2024/02/08 02:07:59;;;;;;;2.47;2.27;;;;;;;;;;6385913;27;20297;-57
2024/02/08 02:11:12;;;;;;;5.90;2.40;;;;;;;;;;6372153;27;20294;-58
2024/02/08 02:14:18;;;;;;;3.07;2.97;;;;;;;;;;6360362;28;20299;-58
2024/02/08 02:17:26;;;;;;;2.97;2.83;;;;;;;;;;6359749;28;20306;-57
2024/02/08 02:20:30;;;;;;;2.97;2.87;;;;;;;;;;6360181;28;20294;-57
2024/02/08 02:23:36;;;;;;;2.33;2.23;;;;;;;;;;6360395;28;20293;-58
2024/02/08 02:26:40;;;;;;;2.60;2.50;;;;;;;;;;6360894;28;20289;-55
2024/02/08 02:29:45;;;;;;;3.00;2.80;;;;;;;;;;6385271;27;20285;-57
2024/02/08 02:32:50;;;;;;;3.30;2.70;;;;;;;;;;6385016;27;20309;-57
2024/02/08 02:35:55;;;;;;;5.83;2.77;;;;;;;;;;6385980;27;20292;-56
2024/02/08 02:39:00;;;;;;;2.80;2.70;;;;;;;;;;6384987;27;20300;-57
2024/02/08 02:42:06;;;;;;;2.83;2.73;;;;;;;;;;6385602;27;20525;-57
2024/02/08 02:45:13;;;;;;;2.57;2.47;;;;;;;;;;6385174;27;20292;-58
2024/02/08 02:48:17;;;;;;;3.07;2.77;;;;;;;;;;6384703;27;20391;-57
2024/02/08 02:51:21;;;;;;;3.00;2.80;;;;;;;;;;6385472;27;20288;-57
2024/02/08 02:54:30;;;;;;;4.27;2.87;;;;;;;;;;6383561;27;20311;-57
2024/02/08 02:57:35;;;;;;;3.00;2.53;;;;;;;;;;6385279;27;20238;-57
2024/02/08 03:00:40;;;;;;;3.33;2.90;;;;;;;;;;6384590;27;20554;-57
2024/02/08 03:03:47;;;;;;;4.23;2.83;;;;;;;;;;6383626;27;20443;-57
2024/02/08 03:06:53;;;;;;;3.60;2.60;;;;;;;;;;6384974;27;20571;-57
2024/02/08 03:09:58;;;;;;;2.83;2.70;;;;;;;;;;6379525;27;20305;-57
2024/02/08 03:13:02;;;;;;;3.10;3.00;;;;;;;;;;6358805;28;20558;-57
2024/02/08 03:16:09;;;;;;;4.03;2.87;;;;;;;;;;6359687;28;20299;-56
2024/02/08 03:19:14;;;;;;;5.17;2.63;;;;;;;;;;6358720;28;20305;-56
2024/02/08 03:22:18;;;;;;;3.40;3.10;;;;;;;;;;6384873;27;20289;-56
2024/02/08 03:25:24;;;;;;;3.07;2.97;;;;;;;;;;6384578;27;20332;-56
2024/02/08 03:28:28;;;;;;;2.43;2.43;;;;;;;;;;6383126;27;20373;-57
2024/02/08 03:31:33;;;;;;;4.90;2.63;;;;;;;;;;6384866;27;20317;-58
2024/02/08 03:34:36;;;;;;;3.23;2.63;;;;;;;;;;6384203;27;20482;-57
2024/02/08 03:37:48;;;;;;;7.73;3.40;;;;;;;;;;6383888;27;20296;-56
2024/02/08 03:40:54;;;;;;;3.23;2.40;;;;;;;;;;6384204;28;20354;-57
2024/02/08 03:44:02;;;;;;;3.00;2.83;;;;;;;;;;6383588;28;20295;-55
2024/02/08 03:47:07;;;;;;;3.43;2.93;;;;;;;;;;6384235;28;20288;-57
2024/02/08 03:50:13;;;;;;;3.20;2.90;;;;;;;;;;6383725;28;20291;-56
2024/02/08 03:53:20;;;;;;;5.67;3.37;;;;;;;;;;6383545;28;20288;-57
2024/02/08 03:56:36;;;;;;;2.83;2.73;;;;;;;;;;6383961;28;20304;-56
2024/02/08 03:59:42;;;;;;;2.70;2.60;;;;;;;;;;6383676;28;20586;-57
2024/02/08 04:02:47;;;;;;;4.13;3.20;;;;;;;;;;6357476;28;20278;-55
2024/02/08 04:06:03;;;;;;;3.23;3.07;;;;;;;;;;6358175;28;20282;-57
2024/02/08 04:09:16;;;;;;;2.87;2.67;;;;;;;;;;6383208;27;20467;-56
2024/02/08 04:56:24;;;;;;;4.90;3.30;;;;;;;;;;6309532;28;20306;-58
2024/02/08 04:59:28;;;;;;;10.20;3.87;;;;;;;;;;6387590;27;20487;-58
2024/02/08 05:02:33;;;;;;;3.73;3.43;;;;;;;;;;6387887;27;20297;-58
2024/02/08 05:05:43;;;;;;;10.43;3.30;;;;;;;;;;6387059;27;20294;-58
2024/02/08 05:08:48;;;;;;;8.00;4.07;;;;;;;;;;6387300;27;20481;-57
2024/02/08 05:11:52;;;;;;;12.30;3.63;;;;;;;;;;6365850;27;20381;-58
2024/02/08 05:14:56;;;;;;;7.37;3.00;;;;;;;;;;6361402;28;20299;-58
2024/02/08 05:18:01;;;;;;;3.80;3.50;;;;;;;;;;6361620;28;20295;-58
2024/02/08 05:21:08;;;;;;;8.33;3.10;;;;;;;;;;6361981;28;20317;-59
2024/02/08 05:24:13;;;;;;;3.40;3.00;;;;;;;;;;6361260;28;20290;-58
2024/02/08 05:27:17;;;;;;;2.90;2.77;;;;;;;;;;6361390;28;20292;-58
2024/02/08 05:30:22;;;;;;;3.00;2.90;;;;;;;;;;6361516;28;20295;-58
2024/02/08 05:33:29;;;;;;;4.07;2.90;;;;;;;;;;6360346;28;20287;-58
2024/02/08 05:36:33;;;;;;;6.53;3.40;;;;;;;;;;6387132;27;20237;-58
2024/02/08 05:39:37;;;;;;;6.10;3.00;;;;;;;;;;6386553;27;20303;-58
2024/02/08 05:42:43;;;;;;;6.37;3.80;;;;;;;;;;6386425;27;20233;-58
2024/02/08 05:45:51;;;;;;;6.23;3.27;;;;;;;;;;6386969;27;20293;-58
2024/02/08 05:49:04;;;;;;;5.70;3.50;;;;;;;;;;6386132;27;20309;-58
2024/02/08 05:52:08;;;;;;;4.40;3.53;;;;;;;;;;6385842;27;20298;-59
2024/02/08 05:55:12;;;;;;;7.10;3.50;;;;;;;;;;6385912;27;20290;-58
2024/02/08 05:58:18;;;;;;;3.40;3.10;;;;;;;;;;6367238;27;20322;-55
2024/02/08 06:01:23;;;;;;;9.57;3.43;;;;;;;;;;6386154;27;20296;-57
2024/02/08 06:04:34;;;;;;;3.53;3.17;;;;;;;;;;6385801;27;20295;-58
2024/02/08 06:07:44;;;;;;;2.83;2.70;;;;;;;;;;6385919;27;20395;-57
2024/02/08 06:10:52;;;;;;;3.40;3.10;;;;;;;;;;6373612;27;20297;-57
2024/02/08 06:13:58;;;;;;;4.40;3.30;;;;;;;;;;6359829;28;20588;-58
2024/02/08 06:17:06;;;;;;;3.83;3.33;;;;;;;;;;6360400;28;20298;-58
2024/02/08 06:20:14;;;;;;;4.83;3.33;;;;;;;;;;6360168;28;20300;-56
2024/02/08 06:23:23;;;;;;;3.87;3.47;;;;;;;;;;6360044;28;20590;-57
2024/02/08 06:26:30;;;;;;;5.97;3.60;;;;;;;;;;6360837;28;20290;-57
2024/02/08 06:29:46;;;;;;;4.53;2.90;;;;;;;;;;6385052;27;20340;-57
2024/02/08 06:33:07;;;;;;;3.77;3.57;;;;;;;;;;6385435;27;20285;-57
2024/02/08 06:36:22;;;;;;;3.77;3.47;;;;;;;;;;6385446;27;20306;-58
2024/02/08 06:39:30;;;;;;;3.93;3.40;;;;;;;;;;6333478;28;20302;-58
2024/02/08 06:43:25;;;;;;;4.23;3.83;;;;;;;;;;6334464;28;20346;-56
2024/02/08 06:46:17;;;;;;;7.13;3.50;;;;;;;;;;6334134;28;20291;-58
2024/02/08 07:40:23;;;;;;;10.37;3.47;;;;;;;;;;6299160;28;20287;-58
2024/02/08 07:43:34;;;;;;;5.63;3.30;;;;;;;;;;6358245;28;20469;-58
2024/02/08 07:46:42;;;;;;;7.33;3.10;;;;;;;;;;6359094;28;20585;-58
2024/02/08 07:49:49;;;;;;;3.50;3.23;;;;;;;;;;6358215;28;20293;-58
2024/02/08 07:52:58;;;;;;;3.60;3.40;;;;;;;;;;6358279;28;20303;-59
2024/02/08 07:59:28;;;;;;;5.17;2.77;;;;;;;;;;6357928;28;20306;-57
2024/02/08 08:02:32;;;;;;;5.97;3.53;;;;;;;;;;6358633;28;20293;-58
2024/02/08 08:05:41;;;;;;;5.10;3.13;;;;;;;;;;6357769;28;20603;-58
2024/02/08 08:08:57;;;;;;;6.33;3.83;;;;;;;;;;6357982;28;20313;-57
2024/02/08 08:12:04;;;;;;;3.87;3.50;;;;;;;;;;6358316;28;20440;-57
2024/02/08 08:15:16;;;;;;;3.27;3.10;;;;;;;;;;6360304;28;20431;-57
2024/02/08 08:18:29;;;;;;;9.30;3.70;;;;;;;;;;6362898;28;20329;-56
2024/02/08 08:21:58;;;;;;;3.20;3.10;;;;;;;;;;6361994;28;20301;-57
2024/02/08 08:25:28;;;;;;;3.30;3.00;;;;;;;;;;6362356;28;20294;-57
2024/02/08 08:28:40;;;;;;;3.37;3.17;;;;;;;;;;6362257;28;20286;-56
2024/02/08 08:31:52;;;;;;;3.57;3.30;;;;;;;;;;6363278;28;20303;-58
2024/02/08 08:38:30;;;;;;;6.00;3.60;;;;;;;;;;6360717;28;20441;-56
2024/02/08 08:41:32;;;;;;;5.37;3.30;;;;;;;;;;6362907;28;20613;-57
2024/02/08 08:44:36;;;;;;;3.80;3.50;;;;;;;;;;6362279;28;20301;-57
2024/02/08 08:47:43;;;;;;;3.30;3.10;;;;;;;;;;6362425;28;20305;-59
2024/02/08 08:50:50;;;;;;;3.70;3.50;;;;;;;;;;6362690;28;20610;-58
2024/02/08 08:54:00;;;;;;;3.77;3.57;;;;;;;;;;6361982;28;20294;-58
2024/02/08 08:57:12;;;;;;;3.33;3.23;;;;;;;;;;6362610;28;20290;-58
2024/02/08 09:00:31;;;;;;;4.83;3.20;;;;;;;;;;6361538;28;20294;-56
2024/02/08 09:03:39;;;;;;;3.40;3.10;;;;;;;;;;6360897;28;20298;-57
2024/02/08 09:06:47;;;;;;;2.83;2.70;;;;;;;;;;6362248;28;20308;-58
2024/02/08 09:10:04;;;;;;;2.90;2.80;;;;;;;;;;6361661;28;20303;-57
2024/02/08 09:13:08;;;;;;;2.73;2.50;;;;;;;;;;6362160;28;20300;-56
2024/02/08 09:16:36;;;;;;;4.33;2.80;;;;;;;;;;6362083;28;20294;-57
2024/02/08 09:19:47;;;;;;;2.97;2.60;;;;;;;;;;6361278;28;20385;-58
2024/02/08 09:22:52;;;;;;;3.43;2.50;;;;;;;;;;6361383;28;20290;-57
2024/02/08 09:26:00;;;;;;;2.80;2.60;;;;;;;;;;6361586;28;20426;-56
2024/02/08 09:29:09;;;;;;;2.97;2.77;;;;;;;;;;6361179;28;20590;-56
2024/02/08 09:32:43;;;;;;;2.40;2.30;;;;;;;;;;6361667;28;20452;-59
2024/02/08 09:35:47;;;;;;;4.17;2.40;;;;;;;;;;6360845;28;20569;-56
2024/02/08 09:38:51;;;;;;;2.43;2.33;;;;;;;;;;6361188;28;20310;-57
2024/02/08 09:41:55;;;;;;;2.70;2.57;;;;;;;;;;6361625;28;20299;-58
2024/02/08 09:45:13;;;;;;;2.77;2.57;;;;;;;;;;6361107;28;20603;-58
2024/02/08 09:48:26;;;;;;;2.63;2.53;;;;;;;;;;6361233;28;20294;-58
2024/02/08 09:51:35;;;;;;;3.17;2.50;;;;;;;;;;6359849;28;20271;-58
2024/02/08 09:54:46;;;;;;;2.13;2.03;;;;;;;;;;6360540;28;20313;-56
2024/02/08 09:57:53;;;;;;;2.63;2.43;;;;;;;;;;6361425;28;20436;-58
2024/02/08 10:00:57;;;;;;;4.30;2.63;;;;;;;;;;6361271;28;20541;-58
2024/02/08 10:04:05;;;;;;;3.53;2.10;;;;;;;;;;6360497;28;20295;-58
2024/02/08 10:07:16;;;;;;;2.10;2.00;;;;;;;;;;6360528;28;20291;-57
2024/02/08 10:10:21;;;;;;;2.23;2.10;;;;;;;;;;6360147;28;20379;-58
2024/02/08 10:13:30;;;;;;;2.00;2.00;;;;;;;;;;6360162;28;20299;-57
2024/02/08 10:16:43;;;;;;;2.10;1.90;;;;;;;;;;6341951;28;20307;-58
2024/02/08 10:20:32;;;;;;;2.20;2.07;;;;;;;;;;6360147;28;20295;-57
2024/02/08 10:23:38;;;;;;;2.93;2.10;;;;;;;;;;6359685;28;20619;-58
2024/02/08 10:26:45;;;;;;;2.70;2.13;;;;;;;;;;6360466;28;20303;-58
2024/02/08 10:29:58;;;;;;;1.97;1.87;;;;;;;;;;6360062;28;20386;-59
2024/02/08 10:33:04;;;;;;;3.27;2.00;;;;;;;;;;6359941;28;20298;-58
2024/02/08 10:36:15;;;;;;;1.93;1.70;;;;;;;;;;6360598;28;20285;-57
2024/02/08 10:39:27;;;;;;;1.67;1.67;;;;;;;;;;6359431;28;20292;-57
2024/02/08 10:42:38;;;;;;;2.10;1.97;;;;;;;;;;6359464;28;20288;-57
2024/02/08 10:45:43;;;;;;;2.13;2.07;;;;;;;;;;6359201;28;20302;-56
2024/02/08 10:48:49;;;;;;;3.70;1.83;;;;;;;;;;6359238;28;20284;-57
2024/02/08 10:52:00;;;;;;;2.20;2.00;;;;;;;;;;6360147;28;20288;-57
2024/02/08 10:55:18;;;;;;;2.20;1.90;;;;;;;;;;6359210;28;20479;-56
2024/02/08 10:58:27;;;;;;;2.20;2.00;;;;;;;;;;6359020;28;20289;-58
2024/02/08 11:01:37;;;;;;;3.20;1.83;;;;;;;;;;6359456;28;20300;-57
2024/02/08 11:04:42;;;;;;;2.20;2.00;;;;;;;;;;6358884;28;20472;-58
2024/02/08 11:07:48;;;;;;;4.57;2.23;;;;;;;;;;6359442;28;20287;-58
2024/02/08 11:10:58;;;;;;;2.90;2.20;;;;;;;;;;6359438;28;20315;-58
2024/02/08 11:14:08;;;;;;;2.50;1.70;;;;;;;;;;6358500;28;20300;-55
2024/02/08 11:17:20;;;;;;;10.30;2.30;;;;;;;;;;6359133;28;20580;-56
2024/02/08 11:20:33;;;;;;;5.10;1.90;;;;;;;;;;6358701;28;20492;-59
2024/02/08 11:23:45;;;;;;;1.50;1.50;;;;;;;;;;6358712;28;20301;-56
2024/02/08 11:26:54;;;;;;;1.63;1.63;;;;;;;;;;6359214;28;20292;-58
2024/02/08 11:29:59;;;;;;;2.03;1.80;;;;;;;;;;6358769;28;20291;-58
2024/02/08 11:33:04;;;;;;;2.43;1.53;;;;;;;;;;6359229;28;20339;-57
2024/02/08 11:36:13;;;;;;;1.80;1.70;;;;;;;;;;6359010;28;20285;-57
2024/02/08 11:39:28;;;;;;;2.07;1.80;;;;;;;;;;6358361;28;20307;-57
2024/02/08 11:42:36;;;;;;;1.70;1.57;;;;;;;;;;6357753;28;20271;-58
2024/02/08 11:45:52;;;;;;;1.70;1.70;;;;;;;;;;6358074;28;20276;-57
2024/02/08 11:49:10;;;;;;;3.67;1.63;;;;;;;;;;6359021;28;20296;-56
2024/02/08 11:52:19;;;;;;;1.83;1.73;;;;;;;;;;6364152;28;20293;-58
2024/02/08 11:55:23;;;;;;;1.67;1.67;;;;;;;;;;6363513;28;20564;-57
2024/02/08 11:58:29;;;;;;;1.47;1.47;;;;;;;;;;6363359;28;20296;-57
2024/02/08 12:01:34;;;;;;;1.93;1.83;;;;;;;;;;6364113;28;20312;-58
2024/02/08 12:04:38;;;;;;;2.10;1.53;;;;;;;;;;6363235;28;20292;-57
2024/02/08 12:07:45;;;;;;;2.00;1.90;;;;;;;;;;6363822;28;20283;-59
2024/02/08 12:10:49;;;;;;;1.70;1.60;;;;;;;;;;6363797;28;20319;-57
2024/02/08 12:13:56;;;;;;;2.73;1.90;;;;;;;;;;6363385;27;20303;-58
2024/02/08 12:17:21;;;;;;;3.23;1.70;;;;;;;;;;6363529;28;20308;-57
2024/02/08 12:20:25;;;;;;;4.13;1.90;;;;;;;;;;6344527;28;20284;-58
2024/02/08 12:23:31;;;;;;;4.47;1.33;;;;;;;;;;6362729;28;20431;-57
2024/02/08 12:26:38;;;;;;;7.00;1.80;;;;;;;;;;6363348;28;20293;-57
2024/02/08 12:29:46;;;;;;;1.77;1.67;;;;;;;;;;6363137;28;20296;-58
2024/02/08 12:32:52;;;;;;;1.60;1.50;;;;;;;;;;6362628;28;20435;-56
2024/02/08 12:35:58;;;;;;;3.73;1.33;;;;;;;;;;6362999;28;20311;-58
2024/02/08 12:39:17;;;;;;;10.13;1.80;;;;;;;;;;6362933;28;20292;-56
2024/02/08 12:42:23;;;;;;;2.97;1.50;;;;;;;;;;6363281;28;20304;-58
2024/02/08 12:45:29;;;;;;;1.93;1.50;;;;;;;;;;6361879;28;20300;-57
2024/02/08 12:48:34;;;;;;;1.70;1.70;;;;;;;;;;6362708;28;20361;-58
2024/02/08 12:51:39;;;;;;;1.70;1.60;;;;;;;;;;6363086;28;20256;-58
2024/02/08 12:54:43;;;;;;;3.07;1.53;;;;;;;;;;6362261;28;20300;-58
2024/02/08 12:57:57;;;;;;;2.50;1.50;;;;;;;;;;6362241;28;20371;-58
2024/02/08 13:01:05;;;;;;;1.30;1.30;;;;;;;;;;6362265;28;20440;-58
2024/02/08 13:04:15;;;;;;;3.90;1.40;;;;;;;;;;6361793;28;20295;-58
2024/02/08 13:07:25;;;;;;;1.53;1.53;;;;;;;;;;6363031;28;20311;-58
2024/02/08 13:10:31;;;;;;;5.40;1.43;;;;;;;;;;6362289;28;20291;-58
2024/02/08 13:13:41;;;;;;;2.00;1.40;;;;;;;;;;6362344;28;20300;-58
2024/02/08 13:16:47;;;;;;;5.97;1.70;;;;;;;;;;6362366;28;20289;-58
2024/02/08 13:19:54;;;;;;;1.43;1.40;;;;;;;;;;6361878;28;20441;-59
2024/02/08 13:22:58;;;;;;;3.27;1.40;;;;;;;;;;6361549;28;20292;-58
2024/02/08 13:26:06;;;;;;;4.20;1.30;;;;;;;;;;6362146;28;20291;-57
2024/02/08 13:29:18;;;;;;;7.28;1.73;;;;;;;;;;6360273;28;20464;-57
2024/02/08 13:32:27;;;;;;;2.60;1.60;;;;;;;;;;6360954;28;20464;-57
2024/02/08 13:35:39;;;;;;;2.00;1.60;;;;;;;;;;6341410;28;20471;-60
2024/02/08 13:38:44;;;;;;;1.50;1.40;;;;;;;;;;6361555;28;20293;-58
2024/02/08 13:41:48;;;;;;;1.70;1.57;;;;;;;;;;6361765;28;20288;-58
2024/02/08 13:44:54;;;;;;;6.60;1.60;;;;;;;;;;6361169;28;20476;-56
2024/02/08 13:48:00;;;;;;;1.67;1.40;;;;;;;;;;6361130;28;20304;-58
2024/02/08 13:51:07;;;;;;;1.93;1.57;;;;;;;;;;6361506;28;20373;-58
2024/02/08 13:54:12;;;;;;;1.90;1.33;;;;;;;;;;6363349;27;20308;-57
2024/02/08 13:57:17;;;;;;;1.73;1.40;;;;;;;;;;6387324;27;20300;-57
2024/02/08 14:00:26;;;;;;;1.40;1.30;;;;;;;;;;6386822;27;20296;-56
2024/02/08 14:03:34;;;;;;;2.27;1.30;;;;;;;;;;6385835;27;20297;-56
2024/02/08 14:06:41;;;;;;;2.67;1.30;;;;;;;;;;6387253;27;20269;-57
2024/02/08 14:09:52;;;;;;;2.93;1.73;;;;;;;;;;6383052;27;20588;-58
2024/02/08 14:12:59;;;;;;;1.53;1.50;;;;;;;;;;6359946;28;20350;-58
2024/02/08 14:16:13;;;;;;;3.13;1.57;;;;;;;;;;6361018;28;20373;-58
2024/02/08 14:19:33;;;;;;;9.38;1.88;;;;;;;;;;6359138;28;20480;-57
2024/02/08 14:22:38;;;;;;;5.60;1.80;;;;;;;;;;6360353;28;20292;-59
2024/02/08 14:29:05;;;;;;;4.88;1.67;;;;;;;;;;6358763;28;20475;-57
2024/02/08 14:32:11;;;;;;;5.83;1.60;;;;;;;;;;6360638;28;20292;-57
2024/02/08 14:35:31;;;;;;;6.07;1.60;;;;;;;;;;6359877;28;20308;-58
2024/02/08 14:38:36;;;;;;;2.10;1.40;;;;;;;;;;6360059;28;20311;-57
2024/02/08 14:41:42;;;;;;;4.90;1.63;;;;;;;;;;6360458;28;20291;-57
2024/02/08 14:44:53;;;;;;;2.27;1.00;;;;;;;;;;6359718;28;20368;-57
2024/02/08 14:48:00;;;;;;;10.03;1.60;;;;;;;;;;6359968;28;20293;-57
2024/02/08 14:51:28;;;;;;;2.07;1.30;;;;;;;;;;6385422;27;20311;-57
2024/02/08 14:54:30;;;;;;;4.03;1.20;;;;;;;;;;6384220;27;20579;-57
2024/02/08 14:57:42;;;;;;;2.93;1.27;;;;;;;;;;6385170;27;20509;-55
2024/02/08 15:00:57;;;;;;;4.80;1.50;;;;;;;;;;6385049;27;20313;-56
2024/02/08 15:04:15;;;;;;;1.27;1.27;;;;;;;;;;6384736;27;20235;-59
2024/02/08 15:10:44;;;;;;;1.17;1.17;;;;;;;;;;6373147;27;20316;-57
2024/02/08 15:13:49;;;;;;;1.30;1.30;;;;;;;;;;6359335;28;20296;-57
2024/02/08 15:16:53;;;;;;;2.87;1.60;;;;;;;;;;6359778;28;20311;-57
2024/02/08 15:20:36;;;;;;;3.40;1.40;;;;;;;;;;6359564;28;20308;-56
2024/02/08 15:23:47;;;;;;;5.33;1.80;;;;;;;;;;6359048;28;20295;-57
2024/02/08 15:27:04;;;;;;;3.00;2.20;;;;;;;;;;6359555;28;20585;-58
2024/02/08 15:30:14;;;;;;;1.80;1.80;;;;;;;;;;6384382;27;20300;-58
2024/02/08 15:33:17;;;;;;;4.10;1.60;;;;;;;;;;6384941;27;20288;-57
2024/02/08 15:36:31;;;;;;;2.20;1.50;;;;;;;;;;6384876;27;20293;-58
2024/02/08 15:42:58;;;;;;;2.20;1.60;;;;;;;;;;6382857;27;20446;-58
2024/02/08 15:46:04;;;;;;;1.60;1.60;;;;;;;;;;6384809;27;20288;-58
2024/02/08 15:49:14;;;;;;;2.23;1.60;;;;;;;;;;6384690;27;20291;-58
2024/02/08 15:52:22;;;;;;;2.13;1.50;;;;;;;;;;6384992;28;20291;-58
2024/02/08 15:55:38;;;;;;;3.40;1.47;;;;;;;;;;6383722;28;20308;-58
2024/02/08 15:58:44;;;;;;;5.97;1.43;;;;;;;;;;6383893;28;20303;-58
2024/02/08 16:01:51;;;;;;;4.97;1.70;;;;;;;;;;6384485;28;20296;-57
2024/02/08 16:05:11;;;;;;;1.40;1.40;;;;;;;;;;6383928;28;20294;-58
2024/02/08 16:08:16;;;;;;;2.77;1.50;;;;;;;;;;6384111;28;20503;-58
2024/02/08 16:11:23;;;;;;;5.00;1.43;;;;;;;;;;6367465;28;20299;-59
2024/02/08 16:14:27;;;;;;;2.20;1.90;;;;;;;;;;6358314;28;20298;-58
2024/02/08 16:17:39;;;;;;;11.37;1.90;;;;;;;;;;6358701;28;20298;-58
2024/02/08 16:20:49;;;;;;;3.23;1.70;;;;;;;;;;6357865;28;20307;-56
2024/02/08 16:23:58;;;;;;;5.07;1.77;;;;;;;;;;6383939;28;20298;-58
2024/02/08 16:27:07;;;;;;;3.60;1.57;;;;;;;;;;6384382;28;20293;-58
2024/02/08 16:30:28;;;;;;;2.77;1.63;;;;;;;;;;6383810;27;20295;-59
2024/02/08 16:33:41;;;;;;;2.20;1.50;;;;;;;;;;6382943;28;20299;-59
2024/02/08 16:36:50;;;;;;;2.77;1.43;;;;;;;;;;6387183;27;20302;-59
2024/02/08 16:40:07;;;;;;;1.60;1.57;;;;;;;;;;6388628;27;20294;-58
2024/02/08 16:43:13;;;;;;;1.40;1.40;;;;;;;;;;6388130;27;20480;-58
2024/02/08 16:46:21;;;;;;;3.17;1.50;;;;;;;;;;6388813;27;20318;-59
2024/02/08 16:49:27;;;;;;;2.87;1.60;;;;;;;;;;6388102;27;20288;-59
2024/02/08 16:52:39;;;;;;;4.83;1.80;;;;;;;;;;6388592;27;20298;-57
2024/02/08 16:55:47;;;;;;;3.27;1.70;;;;;;;;;;6387478;27;20590;-58
2024/02/08 16:58:55;;;;;;;2.03;1.90;;;;;;;;;;6388471;27;20310;-59
2024/02/08 17:02:07;;;;;;;1.80;1.50;;;;;;;;;;6388284;27;20615;-57
2024/02/08 17:05:18;;;;;;;3.93;1.40;;;;;;;;;;6387846;27;20289;-58
2024/02/08 17:08:29;;;;;;;3.60;1.80;;;;;;;;;;6387907;27;20342;-57
2024/02/08 17:11:35;;;;;;;2.07;1.70;;;;;;;;;;6369328;27;20310;-58
2024/02/08 17:14:46;;;;;;;1.73;1.70;;;;;;;;;;6362181;28;20295;-59
2024/02/08 17:17:50;;;;;;;5.03;2.23;;;;;;;;;;6336771;28;20295;-59
2024/02/08 17:21:05;;;;;;;1.50;1.50;;;;;;;;;;6337077;28;20471;-58
2024/02/08 17:24:21;;;;;;;1.57;1.57;;;;;;;;;;6336215;28;20312;-57
2024/02/08 17:27:38;;;;;;;3.87;1.97;;;;;;;;;;6335939;28;20297;-58
2024/02/08 17:31:03;;;;;;;4.97;1.80;;;;;;;;;;6336214;28;20404;-57
2024/02/08 17:34:10;;;;;;;2.77;1.83;;;;;;;;;;6336357;28;20372;-58
2024/02/08 17:37:17;;;;;;;5.23;1.60;;;;;;;;;;6336739;28;20300;-57
2024/02/08 17:40:29;;;;;;;5.10;2.03;;;;;;;;;;6335795;28;20581;-58
2024/02/08 17:43:38;;;;;;;2.67;1.83;;;;;;;;;;6336027;28;20292;-59
2024/02/08 17:46:46;;;;;;;2.90;1.63;;;;;;;;;;6334837;28;20596;-57
2024/02/08 17:49:50;;;;;;;10.77;2.10;;;;;;;;;;6336077;28;20292;-57
2024/02/08 17:52:54;;;;;;;4.23;1.80;;;;;;;;;;6335324;28;20296;-58
2024/02/08 17:56:06;;;;;;;5.10;2.10;;;;;;;;;;6335830;28;20302;-58
2024/02/08 17:59:15;;;;;;;11.43;2.00;;;;;;;;;;6335701;28;20288;-59
2024/02/08 18:02:22;;;;;;;2.40;1.60;;;;;;;;;;6335752;28;20293;-56
2024/02/08 18:05:35;;;;;;;4.97;1.93;;;;;;;;;;6334982;28;20292;-58
2024/02/08 18:08:39;;;;;;;3.73;1.90;;;;;;;;;;6334711;28;20465;-57
2024/02/08 18:11:49;;;;;;;2.07;1.90;;;;;;;;;;6335617;28;20289;-57
2024/02/08 18:15:00;;;;;;;2.60;2.10;;;;;;;;;;6335612;28;20343;-59
2024/02/08 18:18:07;;;;;;;6.10;2.13;;;;;;;;;;6360610;28;20300;-58
2024/02/08 18:21:14;;;;;;;9.37;2.00;;;;;;;;;;6360948;28;20292;-57
2024/02/08 18:24:19;;;;;;;7.17;2.37;;;;;;;;;;6360416;28;20292;-57
2024/02/08 18:27:27;;;;;;;4.50;2.00;;;;;;;;;;6359536;28;20299;-58
2024/02/08 18:30:35;;;;;;;2.60;2.40;;;;;;;;;;6360191;28;20295;-58
2024/02/08 18:33:45;;;;;;;2.67;2.13;;;;;;;;;;6360196;28;20299;-58
2024/02/08 18:36:50;;;;;;;3.93;1.83;;;;;;;;;;6360564;28;20320;-57
2024/02/08 18:39:55;;;;;;;4.20;2.03;;;;;;;;;;6334368;28;20292;-57
2024/02/08 18:43:03;;;;;;;3.30;2.00;;;;;;;;;;6334315;28;20293;-57
2024/02/08 18:46:11;;;;;;;1.53;1.50;;;;;;;;;;6334613;28;20342;-59
2024/02/08 18:49:17;;;;;;;1.83;1.70;;;;;;;;;;6334383;28;20601;-59
2024/02/08 18:52:24;;;;;;;6.57;1.60;;;;;;;;;;6334530;28;20296;-59
2024/02/08 18:55:39;;;;;;;3.90;2.00;;;;;;;;;;6333846;28;20384;-59
2024/02/08 18:58:43;;;;;;;2.60;1.77;;;;;;;;;;6333396;28;20299;-58
2024/02/08 19:01:47;;;;;;;2.13;1.80;;;;;;;;;;6334708;28;20315;-58
2024/02/08 19:05:06;;;;;;;1.70;1.70;;;;;;;;;;6334391;28;20341;-60
2024/02/08 19:08:14;;;;;;;1.70;1.70;;;;;;;;;;6333728;28;20295;-58
2024/02/08 19:11:19;;;;;;;1.70;1.60;;;;;;;;;;6334237;28;20292;-58
2024/02/08 19:14:26;;;;;;;2.37;2.03;;;;;;;;;;6334089;28;20301;-59
2024/02/08 19:17:30;;;;;;;4.73;1.73;;;;;;;;;;6356536;28;20573;-59
2024/02/08 19:20:37;;;;;;;1.60;1.60;;;;;;;;;;6358937;28;20301;-58
2024/02/08 19:23:43;;;;;;;1.93;1.83;;;;;;;;;;6359376;28;20296;-58
2024/02/08 19:26:47;;;;;;;3.90;1.93;;;;;;;;;;6359796;28;20295;-59
2024/02/08 19:29:53;;;;;;;1.70;1.70;;;;;;;;;;6358773;28;20295;-58
2024/02/08 19:32:59;;;;;;;2.63;1.57;;;;;;;;;;6358828;28;20311;-58
2024/02/08 19:36:09;;;;;;;1.63;1.50;;;;;;;;;;6359716;28;20319;-58
2024/02/08 19:39:36;;;;;;;1.63;1.60;;;;;;;;;;6359082;28;20296;-56
2024/02/08 19:42:43;;;;;;;2.50;1.43;;;;;;;;;;6357980;28;20410;-56
2024/02/08 19:45:47;;;;;;;1.90;1.60;;;;;;;;;;6358894;28;20309;-57
2024/02/08 19:48:57;;;;;;;1.70;1.60;;;;;;;;;;6339969;28;20318;-58
2024/02/08 19:52:06;;;;;;;3.37;1.90;;;;;;;;;;6358696;28;20307;-59
2024/02/08 19:55:20;;;;;;;1.60;1.50;;;;;;;;;;6358535;28;20301;-58
2024/02/08 19:58:28;;;;;;;6.53;1.87;;;;;;;;;;6358342;28;20425;-59
2024/02/08 20:01:35;;;;;;;1.60;1.50;;;;;;;;;;6359198;28;20298;-60
2024/02/08 20:04:40;;;;;;;2.93;1.47;;;;;;;;;;6339126;28;20293;-58
2024/02/08 20:07:46;;;;;;;1.50;1.50;;;;;;;;;;6358402;28;20297;-58
2024/02/08 20:10:51;;;;;;;4.67;1.90;;;;;;;;;;6360985;28;20290;-58
2024/02/08 20:13:58;;;;;;;2.10;2.00;;;;;;;;;;6363392;28;20550;-58
2024/02/08 20:17:09;;;;;;;1.90;1.80;;;;;;;;;;6363780;28;20483;-58
2024/02/08 20:20:19;;;;;;;6.43;2.10;;;;;;;;;;6363158;28;20306;-56
2024/02/08 20:23:32;;;;;;;4.00;2.03;;;;;;;;;;6362791;28;20586;-59
2024/02/08 20:26:36;;;;;;;2.77;1.97;;;;;;;;;;6363788;28;20290;-57
2024/02/08 20:29:42;;;;;;;2.03;2.00;;;;;;;;;;6362896;28;20305;-57
2024/02/08 20:32:46;;;;;;;2.30;2.10;;;;;;;;;;6363925;28;20289;-57
2024/02/08 20:35:50;;;;;;;2.93;2.30;;;;;;;;;;6363989;28;20286;-58
2024/02/08 20:38:55;;;;;;;1.63;1.63;;;;;;;;;;6363178;28;20300;-58
2024/02/08 20:42:00;;;;;;;2.27;2.27;;;;;;;;;;6363078;28;20290;-57